Time;durP1;ratioP1;P1;durP2;ratioP2;P2;SDS_P1;SDS_P2;PMS_P1;PMS_P2;Temp;Humidity;BMP_temperature;BMP_pressure;BME280_temperature;BME280_humidity;BME280_pressure;Samples;Min_cycle;Max_cycle;Signal;HPM_P1;HPM_P2
2024/01/17 16:01:25;;;;;;;28.30;14.30;;;;;;;-1.08;63.33;99709.64;80554;1304;3012773;-70
2024/01/17 16:03:51;;;;;;;35.20;14.90;;;;;;;-1.20;63.50;99712.85;79565;1298;3011584;-67
2024/01/17 16:06:18;;;;;;;32.50;15.10;;;;;;;-1.24;63.33;99714.76;79562;1298;3012933;-68
2024/01/17 16:08:46;;;;;;;32.50;15.00;;;;;;;-1.24;63.67;99719.23;78319;1299;3051563;-66
2024/01/17 16:11:13;;;;;;;35.70;16.10;;;;;;;-1.25;63.49;99723.02;79595;1298;3013747;-68
2024/01/17 16:13:39;;;;;;;36.10;16.40;;;;;;;-1.30;63.73;99725.66;79272;1301;3011543;-67
2024/01/17 16:16:14;;;;;;;33.20;15.50;;;;;;;-1.34;64.07;99732.38;78477;1296;3028084;-70
2024/01/17 16:18:43;;;;;;;36.40;15.10;;;;;;;-1.38;64.57;99735.33;78975;1298;3011821;-64
2024/01/17 16:21:12;;;;;;;38.80;17.00;;;;;;;-1.36;64.61;99740.30;79610;1297;3013053;-64
2024/01/17 16:23:43;;;;;;;32.80;16.70;;;;;;;-1.38;64.63;99744.10;79563;1297;3011865;-66
2024/01/17 16:26:11;;;;;;;33.70;16.70;;;;;;;-1.47;65.46;99749.85;78420;1294;3052700;-63
2024/01/17 16:28:41;;;;;;;36.00;17.20;;;;;;;-1.50;65.41;99748.48;79644;1301;3018419;-63
2024/01/17 16:31:10;;;;;;;32.30;15.10;;;;;;;-1.49;65.36;99751.05;79020;1308;3011661;-67
2024/01/17 16:33:36;;;;;;;37.80;17.70;;;;;;;-1.50;65.27;99750.54;79541;1295;3020812;-70
2024/01/17 16:36:04;;;;;;;35.60;17.50;;;;;;;-1.50;65.39;99749.85;79664;1298;3013346;-64
2024/01/17 16:38:32;;;;;;;40.90;18.00;;;;;;;-1.53;65.37;99752.80;78177;1297;3050084;-62
2024/01/17 16:40:59;;;;;;;37.00;17.50;;;;;;;-1.52;65.33;99756.05;79640;1297;3013732;-64
2024/01/17 16:43:26;;;;;;;35.40;17.60;;;;;;;-1.58;65.54;99760.73;79550;1295;3013400;-68
2024/01/17 16:45:57;;;;;;;40.80;18.90;;;;;;;-1.64;65.91;99757.52;78456;1298;3026630;-68
2024/01/17 16:48:23;;;;;;;37.70;17.80;;;;;;;-1.64;65.45;99760.94;79409;1296;3011634;-68
2024/01/17 16:50:52;;;;;;;38.90;17.80;;;;;;;-1.66;65.53;99756.84;78930;1298;3011905;-72
2024/01/17 16:53:21;;;;;;;39.80;19.90;;;;;;;-1.69;66.11;99755.99;79793;1293;3013421;-69
2024/01/17 16:55:48;;;;;;;40.80;19.30;;;;;;;-1.72;65.90;99753.95;79627;1294;3013235;-65
2024/01/17 16:58:16;;;;;;;45.50;21.40;;;;;;;-1.79;66.68;99759.66;78497;1297;3051185;-66
2024/01/17 17:00:42;;;;;;;38.10;19.20;;;;;;;-1.83;66.30;99762.08;79709;1292;3013350;-67
2024/01/17 17:03:09;;;;;;;49.00;21.90;;;;;;;-1.81;66.19;99758.64;79490;1292;3012077;-67
2024/01/17 17:05:37;;;;;;;51.80;26.90;;;;;;;-1.88;65.89;99760.39;78600;1294;3025861;-67
2024/01/17 17:08:04;;;;;;;54.50;25.90;;;;;;;-1.89;65.60;99764.69;79671;1299;3013255;-70
2024/01/17 17:10:31;;;;;;;47.10;23.90;;;;;;;-1.90;65.60;99764.69;79836;1297;3013445;-63
2024/01/17 17:12:59;;;;;;;53.70;23.50;;;;;;;-1.95;65.50;99761.62;78379;1299;3051403;-67
2024/01/17 17:15:26;;;;;;;47.30;21.60;;;;;;;-1.97;65.97;99768.86;79697;1295;3018781;-66
2024/01/17 17:17:52;;;;;;;46.50;22.40;;;;;;;-2.00;65.82;99763.70;79465;1298;3013083;-64
2024/01/17 17:20:24;;;;;;;51.60;27.40;;;;;;;-2.01;65.44;99762.35;78315;1300;3028581;-69
2024/01/17 17:22:50;;;;;;;55.30;28.00;;;;;;;-2.05;65.83;99764.59;79687;1292;3011890;-64
2024/01/17 17:25:18;;;;;;;62.00;30.10;;;;;;;-2.10;65.81;99764.44;78706;1299;3025231;-67
2024/01/17 17:27:46;;;;;;;53.60;29.80;;;;;;;-2.13;66.13;99767.72;79914;1298;3018885;-69
2024/01/17 17:30:14;;;;;;;59.90;33.20;;;;;;;-2.18;66.22;99759.66;79706;1298;3011618;-68
2024/01/17 17:32:43;;;;;;;57.70;32.20;;;;;;;-2.17;66.03;99761.21;78323;1296;3050836;-63
2024/01/17 17:35:10;;;;;;;56.10;32.20;;;;;;;-2.19;65.38;99766.38;80027;1295;3011782;-71
2024/01/17 17:37:36;;;;;;;55.70;28.30;;;;;;;-2.21;65.77;99765.34;79678;1298;3012673;-69
2024/01/17 17:40:05;;;;;;;45.30;25.00;;;;;;;-2.20;65.28;99759.69;78356;1298;3050249;-65
2024/01/17 17:42:32;;;;;;;54.30;31.10;;;;;;;-2.24;65.15;99756.60;79910;1293;3014024;-69
2024/01/17 17:44:59;;;;;;;49.30;28.50;;;;;;;-2.22;64.95;99753.67;79905;1297;3011632;-70
2024/01/17 17:47:27;;;;;;;71.00;39.10;;;;;;;-2.20;64.82;99754.01;78423;1295;3051501;-74
2024/01/17 17:49:53;;;;;;;64.00;37.70;;;;;;;-2.24;64.57;99752.83;79987;1292;3013725;-73
2024/01/17 17:52:20;;;;;;;54.90;29.30;;;;;;;-2.26;64.86;99753.00;80136;1298;3013024;-65
2024/01/17 17:54:48;;;;;;;51.70;27.30;;;;;;;-2.27;65.12;99750.61;78540;1298;3026389;-68
2024/01/17 17:57:14;;;;;;;52.20;25.40;;;;;;;-2.32;65.30;99749.77;79568;1297;3018662;-65
2024/01/17 17:59:41;;;;;;;55.10;26.00;;;;;;;-2.33;65.64;99747.36;79693;1295;3013701;-69
2024/01/17 18:02:09;;;;;;;53.00;27.60;;;;;;;-2.31;65.68;99747.53;78450;1298;3025768;-66
2024/01/17 18:04:37;;;;;;;59.80;29.10;;;;;;;-2.35;66.22;99748.41;79609;1295;3015032;-70
2024/01/17 18:07:04;;;;;;;49.60;26.30;;;;;;;-2.35;66.29;99746.86;79762;1298;3013192;-70
2024/01/17 18:09:31;;;;;;;48.20;24.40;;;;;;;-2.45;66.28;99734.89;78273;1298;3049352;-70
2024/01/17 18:11:58;;;;;;;51.60;24.50;;;;;;;-2.49;66.95;99734.21;79414;1299;3018475;-65
2024/01/17 18:14:24;;;;;;;53.30;24.80;;;;;;;-2.50;67.70;99724.95;79735;1297;3013130;-70
2024/01/17 18:16:52;;;;;;;55.70;24.10;;;;;;;-2.50;67.43;99714.66;78426;1298;3026470;-70
2024/01/17 18:19:19;;;;;;;46.70;22.30;;;;;;;-2.56;66.94;99715.02;79710;1292;3013723;-69
2024/01/17 18:21:45;;;;;;;46.40;21.00;;;;;;;-2.58;66.69;99716.58;79878;1297;3011542;-71
2024/01/17 18:24:14;;;;;;;43.20;20.70;;;;;;;-2.56;67.03;99718.11;78509;1298;3028358;-67
2024/01/17 18:26:40;;;;;;;41.40;19.90;;;;;;;-2.53;66.95;99715.86;79568;1294;3018957;-67
2024/01/17 18:29:07;;;;;;;34.10;17.50;;;;;;;-2.53;67.06;99711.92;79652;1298;3011694;-66
2024/01/17 18:31:37;;;;;;;37.20;17.00;;;;;;;-2.62;67.27;99710.23;78262;1298;3028742;-64
2024/01/17 18:34:03;;;;;;;34.30;16.10;;;;;;;-2.66;67.27;99709.04;79718;1295;3013310;-65
2024/01/17 18:36:30;;;;;;;28.30;13.80;;;;;;;-2.61;67.76;99712.11;79740;1296;3011642;-62
2024/01/17 18:38:59;;;;;;;29.00;13.50;;;;;;;-2.65;67.35;99710.23;78450;1299;3049988;-67
2024/01/17 18:41:25;;;;;;;31.40;14.40;;;;;;;-2.64;67.54;99710.92;79785;1297;3013692;-66
2024/01/17 18:43:52;;;;;;;27.60;13.90;;;;;;;-2.61;67.60;99711.42;79545;1292;3011597;-65
2024/01/17 18:46:20;;;;;;;26.20;12.60;;;;;;;-2.62;68.32;99709.20;78655;1299;3049415;-66
2024/01/17 18:48:47;;;;;;;28.70;13.50;;;;;;;-2.63;68.41;99715.89;79588;1292;3019012;-65
2024/01/17 18:51:14;;;;;;;29.90;14.30;;;;;;;-2.61;68.82;99715.89;79587;1293;3013369;-66
2024/01/17 18:53:42;;;;;;;30.70;13.70;;;;;;;-2.62;68.51;99712.47;78341;1297;3028002;-65
2024/01/17 18:56:08;;;;;;;27.90;13.80;;;;;;;-2.62;68.36;99713.99;79682;1293;3013481;-65
2024/01/17 18:58:35;;;;;;;29.10;13.60;;;;;;;-2.62;68.27;99712.45;79532;1293;3011854;-68
2024/01/17 19:01:03;;;;;;;31.00;13.60;;;;;;;-2.63;68.78;99704.23;78287;1293;3028717;-66
2024/01/17 19:03:30;;;;;;;24.20;12.80;;;;;;;-2.61;68.83;99701.83;79547;1294;3021203;-70
2024/01/17 19:05:57;;;;;;;24.60;13.10;;;;;;;-2.56;68.56;99702.34;79464;1296;3013608;-66
2024/01/17 19:08:25;;;;;;;27.90;13.80;;;;;;;-2.60;68.72;99708.52;78229;1298;3049696;-65
2024/01/17 19:10:51;;;;;;;32.50;14.60;;;;;;;-2.66;69.14;99711.45;79504;1298;3019052;-75
2024/01/17 19:13:18;;;;;;;31.10;16.60;;;;;;;-2.73;69.18;99709.75;79603;1295;3011657;-74
2024/01/17 19:15:47;;;;;;;41.00;19.60;;;;;;;-2.78;69.30;99713.89;78274;1295;3027977;-69
2024/01/17 19:18:14;;;;;;;43.10;21.20;;;;;;;-2.76;69.49;99713.02;79552;1292;3012808;-69
2024/01/17 19:20:41;;;;;;;41.80;22.70;;;;;;;-2.73;68.89;99707.17;79549;1292;3011865;-69
2024/01/17 19:23:10;;;;;;;46.70;23.80;;;;;;;-2.65;68.94;99711.95;78300;1298;3048835;-68
2024/01/17 19:25:36;;;;;;;40.20;22.20;;;;;;;-2.63;68.49;99714.36;79545;1298;3013612;-70
2024/01/17 19:28:04;;;;;;;36.30;18.30;;;;;;;-2.62;68.13;99711.44;79467;1301;3012737;-63
2024/01/17 19:30:35;;;;;;;35.40;16.30;;;;;;;-2.65;67.86;99708.88;78318;1298;3050641;-70
2024/01/17 19:33:02;;;;;;;34.90;17.00;;;;;;;-2.72;68.09;99709.06;79622;1294;3013407;-68
2024/01/17 19:35:31;;;;;;;33.20;17.90;;;;;;;-2.73;67.88;99709.23;79085;1293;3011637;-69
2024/01/17 19:38:00;;;;;;;34.20;18.20;;;;;;;-2.79;67.98;99711.32;79464;1300;3013365;-71
2024/01/17 19:40:27;;;;;;;37.40;19.90;;;;;;;-2.77;68.30;99707.87;79391;1293;3013436;-68
2024/01/17 19:42:58;;;;;;;43.30;21.40;;;;;;;-2.84;68.36;99700.70;78527;1300;3051711;-67
2024/01/17 19:45:25;;;;;;;40.70;22.70;;;;;;;-2.87;68.75;99706.70;79854;1295;3014089;-66
2024/01/17 19:47:54;;;;;;;41.70;24.30;;;;;;;-2.88;69.17;99704.81;79206;1293;3011547;-68
2024/01/17 19:50:20;;;;;;;45.20;25.40;;;;;;;-2.88;69.25;99704.30;79550;1293;3018415;-66
2024/01/17 19:52:47;;;;;;;50.40;29.50;;;;;;;-2.95;69.53;99710.48;79398;1298;3011862;-68
2024/01/17 19:55:16;;;;;;;43.60;26.50;;;;;;;-2.92;69.61;99714.25;78185;1297;3028590;-66
2024/01/17 19:57:44;;;;;;;47.70;27.50;;;;;;;-2.97;69.41;99713.75;79505;1300;3013735;-64
2024/01/17 20:00:26;;;;;;;49.60;29.00;;;;;;;-2.98;69.58;99710.66;79236;1298;3011586;-67
2024/01/17 20:02:55;;;;;;;57.80;30.70;;;;;;;-2.97;69.63;99710.48;78159;1297;3069322;-70
2024/01/17 20:05:22;;;;;;;57.20;32.50;;;;;;;-3.01;69.49;99709.30;79797;1294;3013282;-65
2024/01/17 20:07:49;;;;;;;61.50;34.40;;;;;;;-3.03;69.34;99709.14;79439;1293;3013594;-69
2024/01/17 20:10:17;;;;;;;62.00;34.90;;;;;;;-3.02;69.38;99709.14;78277;1298;3053509;-70
2024/01/17 20:12:43;;;;;;;69.10;37.20;;;;;;;-3.05;69.52;99706.05;79442;1299;3013097;-64
2024/01/17 20:15:10;;;;;;;60.30;34.40;;;;;;;-2.99;69.23;99705.17;79630;1299;3011389;-63
2024/01/17 20:17:38;;;;;;;61.50;31.60;;;;;;;-2.98;69.43;99710.33;78258;1299;3028070;-68
2024/01/17 20:20:06;;;;;;;53.90;32.20;;;;;;;-3.02;69.77;99713.42;79488;1294;3013522;-71
2024/01/17 20:22:36;;;;;;;68.30;40.30;;;;;;;-3.08;69.73;99706.56;79308;1295;3011561;-70
2024/01/17 20:25:03;;;;;;;73.30;43.90;;;;;;;-3.08;69.92;99707.94;79524;1293;3013480;-62
2024/01/17 20:27:30;;;;;;;77.00;42.50;;;;;;;-3.10;70.14;99709.48;79516;1295;3011775;-65
2024/01/17 20:29:58;;;;;;;60.40;34.70;;;;;;;-3.11;70.75;99701.60;78225;1294;3053178;-64
2024/01/17 20:32:24;;;;;;;56.20;32.00;;;;;;;-3.10;70.86;99706.56;79590;1294;3013154;-72
2024/01/17 20:34:51;;;;;;;55.90;28.60;;;;;;;-3.09;71.34;99707.77;79486;1293;3011622;-64
2024/01/17 20:37:19;;;;;;;47.60;25.90;;;;;;;-3.08;71.30;99699.70;78481;1298;3028854;-65
2024/01/17 20:39:46;;;;;;;46.60;24.70;;;;;;;-3.05;71.55;99696.11;79501;1294;3013035;-66
2024/01/17 20:42:14;;;;;;;46.90;23.80;;;;;;;-3.00;71.68;99698.84;79515;1294;3011654;-67
2024/01/17 20:44:41;;;;;;;43.10;22.30;;;;;;;-3.00;71.88;99696.10;78189;1299;3051136;-70
2024/01/17 20:47:08;;;;;;;42.20;22.90;;;;;;;-3.00;72.17;99689.76;79769;1299;3013005;-69
2024/01/17 20:49:35;;;;;;;44.90;21.30;;;;;;;-3.09;72.80;99690.97;79663;1298;3012062;-68
2024/01/17 20:52:03;;;;;;;40.60;21.00;;;;;;;-3.10;73.47;99692.52;78359;1298;3026347;-70
2024/01/17 20:54:30;;;;;;;38.80;19.70;;;;;;;-3.08;73.74;99698.34;79711;1294;3012651;-66
2024/01/17 20:56:57;;;;;;;38.80;20.10;;;;;;;-3.09;74.10;99687.36;79497;1294;3011467;-65
2024/01/17 20:59:25;;;;;;;43.20;19.40;;;;;;;-3.06;73.94;99679.33;78770;1294;3051915;-70
2024/01/17 21:01:51;;;;;;;38.20;19.90;;;;;;;-3.03;73.98;99682.73;81996;1294;3012952;-69
2024/01/17 21:04:18;;;;;;;39.30;18.50;;;;;;;-2.93;73.89;99682.54;81746;1294;3011879;-64
2024/01/17 21:06:46;;;;;;;35.90;18.60;;;;;;;-2.95;73.86;99673.64;80691;1294;3026385;-65
2024/01/17 21:09:47;;;;;;;46.90;19.30;;;;;;;-2.86;73.95;99677.72;82523;1301;3012635;-66
2024/01/17 21:12:14;;;;;;;38.90;19.60;;;;;;;-2.82;73.89;99681.66;81600;1303;3018688;-70
2024/01/17 21:14:40;;;;;;;36.20;18.50;;;;;;;-2.85;73.84;99676.52;80426;1303;3011880;-68
2024/01/17 21:17:09;;;;;;;37.20;19.00;;;;;;;-2.83;73.90;99677.04;78111;1303;3053114;-71
2024/01/17 21:19:36;;;;;;;35.50;18.00;;;;;;;-2.81;73.79;99670.51;79378;1303;3014553;-68
2024/01/17 21:22:03;;;;;;;39.30;20.10;;;;;;;-2.82;73.77;99661.77;78992;1300;3011417;-69
2024/01/17 21:24:31;;;;;;;39.60;19.30;;;;;;;-2.82;73.72;99662.45;78326;1297;3047618;-68
2024/01/17 21:26:58;;;;;;;37.40;21.00;;;;;;;-2.81;73.79;99659.72;79226;1302;3013645;-66
2024/01/17 21:29:24;;;;;;;45.80;24.40;;;;;;;-2.81;73.76;99653.54;79184;1303;3013257;-65
2024/01/17 21:31:53;;;;;;;45.70;23.50;;;;;;;-2.84;74.08;99654.92;78156;1299;3027897;-68
2024/01/17 21:34:20;;;;;;;42.00;22.90;;;;;;;-2.82;74.08;99650.96;79284;1300;3013771;-67
2024/01/17 21:36:47;;;;;;;43.90;23.80;;;;;;;-2.80;74.32;99652.84;79171;1298;3011818;-67
2024/01/17 21:39:15;;;;;;;48.90;22.50;;;;;;;-2.79;74.09;99649.59;78205;1302;3049545;-64
2024/01/17 21:41:41;;;;;;;41.90;21.80;;;;;;;-2.87;74.21;99646.01;79472;1303;3013070;-71
2024/01/17 21:44:08;;;;;;;47.20;24.10;;;;;;;-2.86;74.15;99642.23;79456;1300;3011577;-66
2024/01/17 21:46:36;;;;;;;49.70;23.30;;;;;;;-2.86;74.42;99633.84;78306;1303;3029193;-66
2024/01/17 21:49:03;;;;;;;47.10;22.30;;;;;;;-2.82;74.51;99628.85;79441;1300;3013172;-66
2024/01/17 21:51:32;;;;;;;45.60;21.80;;;;;;;-2.77;74.37;99627.98;79240;1299;3013243;-66
2024/01/17 21:53:59;;;;;;;42.90;21.70;;;;;;;-2.82;74.22;99624.39;78244;1300;3048448;-70
2024/01/17 21:56:26;;;;;;;44.70;21.60;;;;;;;-2.81;74.71;99620.10;79461;1300;3012868;-69
2024/01/17 21:58:54;;;;;;;42.10;20.90;;;;;;;-2.84;74.82;99614.45;79391;1302;3011694;-67
2024/01/17 22:01:23;;;;;;;39.20;18.90;;;;;;;-2.85;74.97;99612.58;78290;1297;3052415;-67
2024/01/17 22:03:51;;;;;;;32.90;18.10;;;;;;;-2.87;75.07;99613.95;79434;1300;3013983;-67
2024/01/17 22:06:17;;;;;;;35.90;18.70;;;;;;;-2.90;75.30;99610.54;79506;1296;3012911;-72
2024/01/17 22:08:45;;;;;;;36.70;16.60;;;;;;;-2.92;75.71;99613.12;78390;1296;3049668;-70
2024/01/17 22:11:12;;;;;;;34.80;18.10;;;;;;;-2.95;75.82;99607.98;79527;1301;3012998;-73
2024/01/17 22:13:38;;;;;;;31.30;17.20;;;;;;;-2.92;75.96;99610.89;79632;1297;3011667;-68
2024/01/17 22:16:08;;;;;;;36.10;18.10;;;;;;;-2.93;75.93;99612.61;78345;1300;3024947;-67
2024/01/17 22:18:34;;;;;;;36.70;18.10;;;;;;;-2.91;75.79;99611.23;79518;1297;3012600;-67
2024/01/17 22:21:01;;;;;;;33.70;17.90;;;;;;;-2.96;75.77;99608.67;79336;1297;3013386;-72
2024/01/17 22:23:29;;;;;;;38.30;20.00;;;;;;;-2.96;76.02;99607.13;77917;1302;3049299;-66
2024/01/17 22:25:56;;;;;;;40.30;19.80;;;;;;;-2.95;76.24;99604.05;79312;1300;3012924;-67
2024/01/17 22:28:22;;;;;;;43.70;24.30;;;;;;;-2.95;76.11;99606.27;79150;1302;3011789;-67
2024/01/17 22:30:50;;;;;;;47.00;23.40;;;;;;;-2.95;76.39;99598.55;78151;1301;3028139;-65
2024/01/17 22:33:17;;;;;;;40.50;20.70;;;;;;;-2.96;76.30;99594.96;79293;1303;3013155;-67
2024/01/17 22:35:44;;;;;;;44.50;22.20;;;;;;;-3.01;76.45;99593.44;79251;1298;3013583;-68
2024/01/17 22:38:12;;;;;;;36.90;20.20;;;;;;;-3.01;76.44;99590.52;78125;1300;3028180;-65
2024/01/17 22:40:38;;;;;;;39.10;20.30;;;;;;;-3.01;76.34;99593.09;79147;1302;3013707;-68
2024/01/17 22:43:05;;;;;;;41.90;21.50;;;;;;;-3.07;76.60;99581.11;79227;1298;3011585;-67
2024/01/17 22:45:33;;;;;;;43.40;20.00;;;;;;;-3.05;76.63;99580.09;78017;1301;3025908;-64
2024/01/17 22:48:00;;;;;;;40.40;20.00;;;;;;;-3.07;76.65;99581.64;79241;1302;3013499;-67
2024/01/17 22:50:26;;;;;;;39.10;19.20;;;;;;;-3.02;76.60;99579.39;79346;1298;3011974;-64
2024/01/17 22:52:54;;;;;;;40.10;18.90;;;;;;;-3.08;76.61;99570.67;78083;1302;3028571;-70
2024/01/17 22:55:21;;;;;;;36.80;19.10;;;;;;;-3.09;76.58;99568.96;79372;1297;3013316;-67
2024/01/17 22:57:48;;;;;;;42.60;21.40;;;;;;;-3.08;76.69;99563.64;79161;1297;3011855;-68
2024/01/17 23:00:22;;;;;;;46.20;23.40;;;;;;;-3.02;76.68;99553.67;78056;1303;3051664;-72
2024/01/17 23:02:49;;;;;;;48.10;23.10;;;;;;;-3.02;76.83;99553.33;79115;1297;3011981;-65
2024/01/17 23:05:18;;;;;;;46.70;24.30;;;;;;;-3.01;76.79;99553.49;78089;1300;3049994;-71
2024/01/17 23:07:45;;;;;;;47.40;25.10;;;;;;;-3.00;76.98;99551.11;79267;1298;3020805;-70
2024/01/17 23:10:11;;;;;;;47.40;24.90;;;;;;;-2.99;77.01;99550.23;79155;1301;3013201;-72
2024/01/17 23:12:39;;;;;;;42.40;22.90;;;;;;;-2.92;77.17;99556.38;77842;1297;3026839;-73
2024/01/17 23:15:06;;;;;;;43.00;21.40;;;;;;;-2.95;77.44;99561.36;79201;1300;3013188;-66
2024/01/17 23:17:33;;;;;;;41.20;20.80;;;;;;;-2.97;77.67;99565.15;79196;1303;3013238;-65
2024/01/17 23:20:01;;;;;;;36.00;20.70;;;;;;;-2.95;78.24;99567.70;78006;1300;3027711;-69
2024/01/17 23:22:27;;;;;;;37.70;18.80;;;;;;;-2.91;78.77;99566.84;79149;1302;3012971;-76
2024/01/17 23:24:54;;;;;;;31.30;17.60;;;;;;;-2.98;79.78;99560.68;79174;1297;3013097;-69
2024/01/17 23:27:22;;;;;;;28.30;15.40;;;;;;;-3.02;81.37;99559.85;78007;1297;3028692;-71
2024/01/17 23:29:48;;;;;;;28.10;14.60;;;;;;;-3.10;82.97;99563.64;79219;1302;3013312;-64
2024/01/17 23:32:15;;;;;;;31.60;15.60;;;;;;;-3.15;84.18;99562.81;79299;1303;3013040;-71
2024/01/17 23:34:42;;;;;;;20.60;10.30;;;;;;;-3.10;84.61;99560.56;77921;1303;3025719;-67
2024/01/17 23:37:09;;;;;;;25.70;12.40;;;;;;;-2.58;83.61;99561.17;79183;1300;3013025;-67
2024/01/17 23:39:35;;;;;;;21.60;11.60;;;;;;;-1.80;80.88;99556.32;79286;1301;3011935;-65
2024/01/17 23:42:03;;;;;;;24.30;11.40;;;;;;;-1.44;79.40;99556.67;78245;1297;3025922;-66
2024/01/17 23:44:30;;;;;;;22.30;11.60;;;;;;;-1.41;79.23;99554.94;79276;1302;3018693;-72
2024/01/17 23:46:57;;;;;;;25.60;14.50;;;;;;;-1.63;79.73;99552.05;79263;1297;3011878;-68
2024/01/17 23:49:25;;;;;;;32.20;16.50;;;;;;;-1.66;80.57;99549.33;77982;1303;3026021;-74
2024/01/17 23:51:51;;;;;;;27.60;16.10;;;;;;;-1.81;80.71;99553.60;79183;1297;3013713;-71
2024/01/17 23:54:18;;;;;;;34.40;16.60;;;;;;;-1.98;81.32;99545.33;79129;1297;3013664;-76
2024/01/17 23:56:46;;;;;;;29.50;15.30;;;;;;;-2.17;82.09;99531.39;78026;1302;3028944;-63
2024/01/17 23:59:12;;;;;;;25.90;13.50;;;;;;;-2.40;83.63;99528.64;79501;1300;3013405;-65
